Time;durP1;ratioP1;P1;durP2;ratioP2;P2;SDS_P1;SDS_P2;PMS_P1;PMS_P2;Temp;Humidity;BMP_temperature;BMP_pressure;BME280_temperature;BME280_humidity;BME280_pressure;Samples;Min_cycle;Max_cycle;Signal;HPM_P1;HPM_P2
2022/03/23 00:02:29;;;;;;;1.70;1.60;;;19.50;99.90;;;;;;5063675;28;20452;-60
2022/03/23 00:04:59;;;;;;;0.93;0.93;;;19.50;99.90;;;;;;5064681;28;20535;-61
2022/03/23 00:07:32;;;;;;;1.00;0.87;;;19.40;99.90;;;;;;5060620;28;20459;-59
2022/03/23 00:10:03;;;;;;;1.17;1.03;;;19.40;99.90;;;;;;5044266;28;20428;-61
2022/03/23 00:12:34;;;;;;;1.20;1.20;;;19.40;99.90;;;;;;5059815;28;20435;-61
2022/03/23 00:15:07;;;;;;;1.70;1.13;;;19.40;99.90;;;;;;5064145;28;20536;-61
2022/03/23 00:17:39;;;;;;;1.30;1.20;;;19.40;99.90;;;;;;5062023;28;20437;-62
2022/03/23 00:20:11;;;;;;;1.20;1.10;;;19.30;99.90;;;;;;5063491;28;20479;-62
2022/03/23 00:22:44;;;;;;;0.70;0.70;;;19.30;99.90;;;;;;5062470;28;20449;-62
2022/03/23 00:25:15;;;;;;;2.57;0.93;;;19.30;99.90;;;;;;5062781;28;20944;-62
2022/03/23 00:27:46;;;;;;;1.10;0.73;;;19.20;99.90;;;;;;5061195;28;20472;-61
2022/03/23 00:30:17;;;;;;;0.90;0.90;;;19.30;99.90;;;;;;5066553;28;20456;-62
2022/03/23 00:32:47;;;;;;;1.43;1.10;;;19.20;99.90;;;;;;5062262;28;20441;-62
2022/03/23 00:35:19;;;;;;;0.80;0.80;;;19.30;99.90;;;;;;5061912;28;20455;-62
2022/03/23 00:37:51;;;;;;;1.90;0.70;;;19.20;99.90;;;;;;5060879;28;20427;-62
2022/03/23 00:40:23;;;;;;;0.80;0.70;;;19.10;99.90;;;;;;5062420;28;20487;-61
2022/03/23 00:42:54;;;;;;;1.07;0.97;;;19.10;99.90;;;;;;5061471;28;20460;-63
2022/03/23 00:45:25;;;;;;;1.30;0.87;;;19.00;99.90;;;;;;5061921;28;20518;-62
2022/03/23 00:47:56;;;;;;;1.70;1.00;;;18.90;99.90;;;;;;5055741;28;20463;-62
2022/03/23 00:50:26;;;;;;;1.07;0.90;;;18.90;99.90;;;;;;5062980;28;20459;-62
2022/03/23 00:52:59;;;;;;;0.90;0.90;;;18.90;99.90;;;;;;5067293;28;20445;-62
2022/03/23 00:55:30;;;;;;;1.17;0.80;;;18.90;99.90;;;;;;5061718;28;20507;-63
2022/03/23 00:58:00;;;;;;;1.20;1.10;;;18.90;99.90;;;;;;5060936;28;20687;-62
2022/03/23 01:00:31;;;;;;;1.40;1.10;;;18.90;99.90;;;;;;5063190;28;20456;-62
2022/03/23 01:03:04;;;;;;;1.07;1.00;;;18.90;99.90;;;;;;5058051;28;20426;-60
2022/03/23 01:05:35;;;;;;;1.33;1.20;;;18.70;99.90;;;;;;5064610;28;20562;-62
2022/03/23 01:08:07;;;;;;;0.80;0.80;;;18.70;99.90;;;;;;5062231;28;20446;-62
2022/03/23 01:10:38;;;;;;;0.90;0.73;;;18.70;99.90;;;;;;5061787;28;20427;-64
2022/03/23 01:13:10;;;;;;;0.80;0.80;;;18.60;99.90;;;;;;5060898;28;21331;-64
2022/03/23 01:15:41;;;;;;;3.00;1.20;;;18.60;99.90;;;;;;5058129;28;20430;-64
2022/03/23 01:18:12;;;;;;;1.40;1.30;;;18.50;99.90;;;;;;5061781;28;20476;-62
2022/03/23 01:20:43;;;;;;;1.07;0.93;;;18.50;99.90;;;;;;5062412;28;20487;-64
2022/03/23 01:23:16;;;;;;;0.50;0.50;;;18.40;99.90;;;;;;5061918;28;20811;-64
2022/03/23 01:25:47;;;;;;;1.17;0.80;;;18.30;99.90;;;;;;5061898;28;20935;-66
2022/03/23 01:28:18;;;;;;;1.00;0.90;;;18.30;99.90;;;;;;5060642;28;20452;-64
2022/03/23 01:30:49;;;;;;;2.80;1.13;;;18.30;99.90;;;;;;5062157;28;20859;-63
2022/03/23 01:33:20;;;;;;;1.10;1.10;;;18.30;99.90;;;;;;5062055;28;20446;-63
2022/03/23 01:35:51;;;;;;;1.37;1.20;;;18.30;99.90;;;;;;5061067;28;20763;-66
2022/03/23 01:38:27;;;;;;;3.50;1.13;;;18.20;99.90;;;;;;5059806;28;20508;-65
2022/03/23 01:40:58;;;;;;;1.53;0.80;;;18.20;99.90;;;;;;5050186;28;20487;-63
2022/03/23 01:43:30;;;;;;;1.03;0.97;;;18.20;99.90;;;;;;5061119;28;20822;-63
2022/03/23 01:46:01;;;;;;;1.20;1.10;;;18.20;99.90;;;;;;5061236;28;20593;-67
2022/03/23 01:48:32;;;;;;;1.90;1.10;;;18.10;99.90;;;;;;5061558;28;20448;-66
2022/03/23 01:51:04;;;;;;;0.90;0.90;;;18.00;99.90;;;;;;5061855;28;20464;-63
2022/03/23 01:53:36;;;;;;;1.37;1.00;;;18.00;99.90;;;;;;5061228;28;20516;-61
2022/03/23 01:56:13;;;;;;;1.37;1.20;;;17.90;99.90;;;;;;5060660;28;20907;-61
2022/03/23 01:58:44;;;;;;;1.97;1.40;;;17.70;99.90;;;;;;5060767;28;20452;-60
2022/03/23 02:01:18;;;;;;;1.80;1.53;;;17.60;99.90;;;;;;5063343;28;20483;-62
2022/03/23 02:03:49;;;;;;;2.30;2.10;;;17.60;99.90;;;;;;5064369;28;20440;-62
2022/03/23 02:06:21;;;;;;;2.87;1.70;;;17.50;99.90;;;;;;5065002;28;20444;-61
2022/03/23 02:08:53;;;;;;;1.60;1.50;;;17.50;99.90;;;;;;5064974;28;20456;-60
2022/03/23 02:11:24;;;;;;;1.77;1.37;;;17.40;99.90;;;;;;5064713;28;20459;-60
2022/03/23 02:13:55;;;;;;;1.73;1.63;;;17.30;99.90;;;;;;5062022;28;20450;-60
2022/03/23 02:16:25;;;;;;;1.63;1.53;;;17.20;99.90;;;;;;5065091;28;20754;-61
2022/03/23 02:18:56;;;;;;;2.20;2.00;;;17.10;99.90;;;;;;5065026;28;20575;-61
2022/03/23 02:21:28;;;;;;;1.77;1.67;;;17.00;99.90;;;;;;5063375;28;20476;-61
2022/03/23 02:24:01;;;;;;;2.23;1.63;;;16.90;99.90;;;;;;5063741;28;20551;-61
2022/03/23 02:26:33;;;;;;;1.93;1.47;;;16.90;99.90;;;;;;5063190;28;20452;-60
2022/03/23 02:29:06;;;;;;;1.47;1.47;;;16.80;99.90;;;;;;5063007;28;20444;-61
2022/03/23 02:31:37;;;;;;;2.60;1.60;;;16.70;99.90;;;;;;5064273;28;20506;-61
2022/03/23 02:34:08;;;;;;;1.27;1.23;;;16.60;99.90;;;;;;5063956;28;20444;-61
2022/03/23 02:36:39;;;;;;;2.10;1.83;;;16.50;99.90;;;;;;5063820;28;20462;-62
2022/03/23 02:39:12;;;;;;;2.27;1.93;;;16.40;99.90;;;;;;5064241;28;20450;-61
2022/03/23 02:41:43;;;;;;;1.90;1.60;;;16.30;99.90;;;;;;5064158;28;20495;-62
2022/03/23 02:44:15;;;;;;;1.70;1.60;;;16.20;99.90;;;;;;5063281;28;20486;-61
2022/03/23 02:46:46;;;;;;;1.70;1.60;;;16.10;99.90;;;;;;5063775;28;20448;-61
2022/03/23 02:49:20;;;;;;;3.00;1.77;;;16.00;99.90;;;;;;5064362;28;20448;-60
2022/03/23 02:51:51;;;;;;;2.47;2.10;;;16.00;99.90;;;;;;5063920;28;20427;-61
2022/03/23 03:03:38;;;;;;;3.53;2.40;;;15.70;99.90;;;;;;5020362;28;20458;-61
2022/03/23 03:06:09;;;;;;;2.07;1.93;;;15.60;99.90;;;;;;5018936;28;20458;-61
2022/03/23 03:08:49;;;;;;;3.43;2.53;;;15.50;99.90;;;;;;5021604;28;20989;-60
2022/03/23 03:11:23;;;;;;;2.10;2.00;;;15.40;99.90;;;;;;5019885;28;20450;-61
2022/03/23 03:13:54;;;;;;;3.20;2.47;;;15.30;99.90;;;;;;5021057;28;20446;-59
2022/03/23 03:16:25;;;;;;;4.50;2.23;;;15.20;99.90;;;;;;5021029;28;20450;-62
2022/03/23 03:18:56;;;;;;;2.10;1.90;;;15.20;99.90;;;;;;5021052;28;20592;-60
2022/03/23 03:21:27;;;;;;;2.13;2.03;;;15.10;99.90;;;;;;5019959;28;20442;-62
2022/03/23 03:23:58;;;;;;;2.33;2.13;;;15.00;99.90;;;;;;5020870;28;20458;-61
2022/03/23 03:26:31;;;;;;;2.43;2.23;;;15.00;99.90;;;;;;5019888;28;20461;-61
2022/03/23 03:29:04;;;;;;;2.50;2.30;;;14.90;99.90;;;;;;5018560;28;21264;-61
2022/03/23 03:31:36;;;;;;;2.50;2.30;;;14.80;99.90;;;;;;5033767;28;20471;-61
2022/03/23 03:34:08;;;;;;;4.60;2.20;;;14.70;99.90;;;;;;5063217;28;20462;-61
2022/03/23 03:36:40;;;;;;;2.40;2.20;;;14.70;99.90;;;;;;5065625;28;20477;-61
2022/03/23 03:39:11;;;;;;;2.90;2.67;;;14.60;99.90;;;;;;5064533;28;20778;-61
2022/03/23 03:41:44;;;;;;;2.27;2.10;;;14.60;99.90;;;;;;5062842;28;20459;-61
2022/03/23 03:44:14;;;;;;;2.93;2.30;;;14.50;99.90;;;;;;5065881;28;20449;-61
2022/03/23 03:46:46;;;;;;;3.43;2.50;;;14.50;99.90;;;;;;5067138;28;20451;-60
2022/03/23 03:49:18;;;;;;;2.50;2.30;;;14.40;99.90;;;;;;5066067;28;20445;-60
2022/03/23 03:51:49;;;;;;;2.63;2.43;;;14.40;99.90;;;;;;5063479;28;20460;-60
2022/03/23 03:54:20;;;;;;;2.20;2.10;;;14.30;99.90;;;;;;5065893;28;20499;-60
2022/03/23 03:56:54;;;;;;;2.77;2.10;;;14.30;99.90;;;;;;5063306;28;20455;-60
2022/03/23 03:59:24;;;;;;;2.77;2.33;;;14.20;99.90;;;;;;5061311;28;20445;-60
2022/03/23 04:01:55;;;;;;;2.73;2.53;;;14.20;99.90;;;;;;5067641;28;20689;-60
2022/03/23 04:04:26;;;;;;;2.77;2.37;;;14.20;99.90;;;;;;5069670;28;20551;-60
2022/03/23 04:06:57;;;;;;;5.83;3.47;;;14.10;99.90;;;;;;5064458;28;20444;-60
2022/03/23 04:09:28;;;;;;;2.60;2.40;;;14.10;99.90;;;;;;5063159;28;20470;-61
2022/03/23 04:12:00;;;;;;;3.23;2.60;;;14.10;99.90;;;;;;5065447;28;20455;-60
2022/03/23 04:14:31;;;;;;;3.73;3.13;;;14.10;99.90;;;;;;5061109;28;20443;-60
2022/03/23 04:17:03;;;;;;;3.20;2.80;;;14.00;99.90;;;;;;5056004;28;20463;-62
2022/03/23 04:19:33;;;;;;;5.20;2.90;;;14.00;99.90;;;;;;5060908;28;20480;-62
2022/03/23 04:22:04;;;;;;;4.57;2.90;;;14.00;99.90;;;;;;5061667;28;20511;-60
2022/03/23 04:24:35;;;;;;;5.63;3.20;;;13.90;99.90;;;;;;5058655;28;20456;-60
2022/03/23 04:27:08;;;;;;;6.37;3.90;;;13.80;99.90;;;;;;5064918;28;20452;-60
2022/03/23 04:29:39;;;;;;;4.30;3.00;;;13.80;99.90;;;;;;5070418;28;20439;-60
2022/03/23 04:32:10;;;;;;;4.53;3.37;;;13.70;99.90;;;;;;5067462;28;20506;-60
2022/03/23 04:34:41;;;;;;;4.40;3.23;;;13.70;99.90;;;;;;5062025;28;20476;-60
2022/03/23 04:37:12;;;;;;;3.30;3.00;;;13.60;99.90;;;;;;5060120;28;20462;-60
2022/03/23 04:39:43;;;;;;;3.30;3.00;;;13.60;99.90;;;;;;5061227;28;20441;-60
2022/03/23 04:42:15;;;;;;;2.90;2.70;;;13.60;99.90;;;;;;5062249;28;20455;-60
2022/03/23 04:44:46;;;;;;;3.87;3.50;;;13.50;99.90;;;;;;5061263;28;20761;-60
2022/03/23 04:47:17;;;;;;;3.97;3.57;;;13.50;99.90;;;;;;5061541;28;20544;-60
2022/03/23 04:49:48;;;;;;;4.33;3.80;;;13.50;99.90;;;;;;5062286;28;20523;-59
2022/03/23 04:52:20;;;;;;;4.07;3.77;;;13.40;99.90;;;;;;5061569;28;20453;-60
2022/03/23 04:54:56;;;;;;;3.93;3.57;;;13.40;99.90;;;;;;5061899;28;20524;-60
2022/03/23 04:57:31;;;;;;;4.13;3.83;;;13.30;99.90;;;;;;5060415;28;20466;-60
2022/03/23 05:00:02;;;;;;;6.30;4.40;;;13.30;99.90;;;;;;5061989;28;20811;-60
2022/03/23 05:02:34;;;;;;;4.23;3.93;;;13.20;99.90;;;;;;5060699;28;20961;-60
2022/03/23 05:05:05;;;;;;;4.43;4.03;;;13.20;99.90;;;;;;5061769;28;20464;-60
2022/03/23 05:07:37;;;;;;;4.83;4.43;;;13.20;99.90;;;;;;5061106;28;20460;-60
2022/03/23 05:10:09;;;;;;;4.77;4.20;;;13.10;99.90;;;;;;5061640;28;20452;-60
2022/03/23 05:12:44;;;;;;;6.40;4.17;;;13.10;99.90;;;;;;5061155;28;20465;-60
2022/03/23 05:15:16;;;;;;;6.00;4.10;;;13.00;99.90;;;;;;5075134;28;20554;-60
2022/03/23 05:17:48;;;;;;;5.70;3.80;;;13.00;99.90;;;;;;5068062;28;20943;-60
2022/03/23 05:20:19;;;;;;;5.77;4.40;;;13.00;99.90;;;;;;5062186;28;20471;-60
2022/03/23 05:22:50;;;;;;;5.30;4.80;;;13.00;99.90;;;;;;5060771;28;20556;-60
2022/03/23 05:25:23;;;;;;;10.93;9.83;;;12.90;99.90;;;;;;5062776;28;20508;-60
2022/03/23 05:27:55;;;;;;;9.50;8.60;;;12.90;99.90;;;;;;5067244;28;20458;-60
2022/03/23 05:30:26;;;;;;;8.73;7.83;;;12.90;99.90;;;;;;5061608;28;20479;-60
2022/03/23 05:32:57;;;;;;;8.27;7.30;;;12.90;99.90;;;;;;5061617;28;20457;-59
2022/03/23 05:35:28;;;;;;;7.40;6.70;;;12.90;99.90;;;;;;5062744;28;20452;-59
2022/03/23 05:37:58;;;;;;;8.60;7.33;;;12.90;99.90;;;;;;5064608;28;20448;-62
2022/03/23 05:40:29;;;;;;;8.47;7.67;;;12.80;99.90;;;;;;5067000;28;20459;-59
2022/03/23 05:43:02;;;;;;;8.20;7.50;;;12.80;99.90;;;;;;5064815;28;20968;-59
2022/03/23 05:45:33;;;;;;;8.33;7.50;;;12.70;99.90;;;;;;5064745;28;21767;-58
2022/03/23 05:48:03;;;;;;;8.50;7.70;;;12.60;99.90;;;;;;5064729;28;20459;-59
2022/03/23 05:50:34;;;;;;;9.10;8.40;;;12.60;99.90;;;;;;5076121;28;20511;-59
2022/03/23 05:53:07;;;;;;;9.60;8.60;;;12.60;99.90;;;;;;5069861;28;20463;-59
2022/03/23 05:55:37;;;;;;;9.80;8.73;;;12.60;99.90;;;;;;5067629;28;20454;-60
2022/03/23 05:58:10;;;;;;;9.53;8.37;;;12.50;99.90;;;;;;5075162;28;20453;-60
2022/03/23 06:00:41;;;;;;;9.80;8.70;;;12.60;99.90;;;;;;5065769;28;20619;-60
2022/03/23 06:03:12;;;;;;;10.03;8.90;;;12.50;99.90;;;;;;5077171;28;20487;-60
2022/03/23 06:05:43;;;;;;;9.80;8.80;;;12.50;99.90;;;;;;5070216;28;20452;-60
2022/03/23 06:08:14;;;;;;;10.23;8.83;;;12.50;99.90;;;;;;5061997;28;20466;-60
2022/03/23 06:10:45;;;;;;;10.87;9.40;;;12.50;99.90;;;;;;5064751;28;20444;-60
2022/03/23 06:13:17;;;;;;;8.90;8.13;;;12.40;99.90;;;;;;5071138;28;20439;-60
2022/03/23 06:15:49;;;;;;;9.30;8.40;;;12.30;99.90;;;;;;5066274;28;21206;-60
2022/03/23 06:18:20;;;;;;;8.20;7.40;;;12.30;99.90;;;;;;5065403;28;21066;-60
2022/03/23 06:20:51;;;;;;;9.37;7.77;;;12.30;99.90;;;;;;5065173;28;20535;-60
2022/03/23 06:23:22;;;;;;;8.20;7.37;;;12.20;99.90;;;;;;5067433;28;20570;-60
2022/03/23 06:26:01;;;;;;;8.10;7.30;;;12.20;99.90;;;;;;5065367;28;20467;-60
2022/03/23 06:28:34;;;;;;;7.50;6.80;;;12.20;99.90;;;;;;5076395;28;20454;-60
2022/03/23 06:31:05;;;;;;;7.63;7.00;;;12.20;99.90;;;;;;5067375;28;20469;-60
2022/03/23 06:33:36;;;;;;;7.67;6.80;;;12.10;99.90;;;;;;5065068;28;20798;-60
2022/03/23 06:36:07;;;;;;;7.37;6.63;;;12.10;99.90;;;;;;5064740;28;20905;-60
2022/03/23 06:38:38;;;;;;;7.50;6.80;;;12.10;99.90;;;;;;5063723;28;20452;-60
2022/03/23 06:41:09;;;;;;;6.93;6.20;;;12.00;99.90;;;;;;5065931;28;20454;-60
2022/03/23 06:43:41;;;;;;;6.20;5.23;;;12.00;99.90;;;;;;5048819;28;20483;-60
2022/03/23 06:46:12;;;;;;;8.80;5.80;;;12.00;99.90;;;;;;5063562;28;20962;-60
2022/03/23 06:48:43;;;;;;;6.60;6.00;;;11.90;99.90;;;;;;5072299;28;20529;-60
2022/03/23 06:51:14;;;;;;;8.03;5.60;;;11.90;99.90;;;;;;5074309;28;20481;-60
2022/03/23 06:53:45;;;;;;;6.53;5.93;;;11.90;99.90;;;;;;5064391;28;20476;-60
2022/03/23 06:56:16;;;;;;;5.60;5.10;;;11.90;99.90;;;;;;5073301;28;20448;-60
2022/03/23 06:58:49;;;;;;;6.33;5.50;;;11.90;99.90;;;;;;5077724;28;20532;-60
2022/03/23 07:01:20;;;;;;;6.03;5.40;;;11.90;99.90;;;;;;5068352;28;20448;-60
2022/03/23 07:03:51;;;;;;;5.50;4.90;;;11.90;99.90;;;;;;5063962;28;20494;-60
2022/03/23 07:06:22;;;;;;;5.50;5.00;;;11.90;99.90;;;;;;5068494;28;20456;-60
2022/03/23 07:11:41;;;;;;;8.73;5.17;;;11.80;99.90;;;;;;5070182;28;20450;-60
2022/03/23 07:14:13;;;;;;;5.93;4.80;;;11.70;99.90;;;;;;5063512;28;20459;-60
2022/03/23 07:16:44;;;;;;;5.77;5.27;;;11.70;99.90;;;;;;5066907;28;20456;-60
2022/03/23 07:19:15;;;;;;;5.03;4.63;;;11.70;99.90;;;;;;5064857;28;20476;-60
2022/03/23 07:21:45;;;;;;;5.43;5.00;;;11.70;99.90;;;;;;5063334;28;20449;-60
2022/03/23 07:24:16;;;;;;;6.47;5.83;;;11.60;99.90;;;;;;5070154;28;20488;-60
2022/03/23 07:26:47;;;;;;;5.43;4.90;;;11.60;99.90;;;;;;5061833;28;20447;-60
2022/03/23 07:29:40;;;;;;;6.03;5.43;;;11.50;99.90;;;;;;5063239;28;20445;-60
2022/03/23 07:32:11;;;;;;;5.97;5.20;;;11.50;99.90;;;;;;5066748;28;20936;-60
2022/03/23 07:34:43;;;;;;;6.50;5.23;;;11.40;99.90;;;;;;5063512;28;20456;-60
2022/03/23 07:37:14;;;;;;;9.17;5.37;;;11.40;99.90;;;;;;5063838;28;20457;-60
2022/03/23 07:39:46;;;;;;;5.03;4.53;;;11.30;99.90;;;;;;5063270;28;20453;-60
2022/03/23 07:42:17;;;;;;;5.40;4.90;;;11.30;99.90;;;;;;5062271;28;20451;-60
2022/03/23 07:44:50;;;;;;;5.33;4.93;;;11.30;99.90;;;;;;5070004;28;20476;-60
2022/03/23 07:47:21;;;;;;;5.33;4.83;;;11.30;99.90;;;;;;5062389;28;20468;-60
2022/03/23 07:49:52;;;;;;;4.70;4.13;;;11.20;99.90;;;;;;5063643;28;20467;-60
2022/03/23 07:52:22;;;;;;;7.00;5.07;;;11.30;99.90;;;;;;5062397;28;20523;-60
2022/03/23 07:54:53;;;;;;;6.80;4.30;;;11.20;99.90;;;;;;5063971;28;20463;-60
2022/03/23 07:57:24;;;;;;;4.33;3.93;;;11.10;99.90;;;;;;5061809;28;20474;-60
2022/03/23 07:59:57;;;;;;;4.60;3.83;;;11.10;99.90;;;;;;5059315;28;20509;-60
2022/03/23 08:02:28;;;;;;;4.27;3.90;;;11.20;99.90;;;;;;5072100;28;20496;-60
2022/03/23 08:04:59;;;;;;;4.37;3.97;;;11.10;99.90;;;;;;5065995;28;20517;-60
2022/03/23 08:07:31;;;;;;;4.97;4.40;;;11.10;99.90;;;;;;5063271;28;20441;-60
2022/03/23 08:10:02;;;;;;;4.10;3.80;;;11.10;99.90;;;;;;5051833;28;20458;-60
2022/03/23 08:12:33;;;;;;;4.33;3.93;;;11.00;99.90;;;;;;5069238;28;20468;-60
2022/03/23 08:15:07;;;;;;;4.90;4.40;;;11.00;99.90;;;;;;5067234;28;20440;-59
2022/03/23 08:17:38;;;;;;;4.30;3.90;;;11.00;99.90;;;;;;5062458;28;20467;-60
2022/03/23 08:23:02;;;;;;;5.87;4.47;;;11.00;99.90;;;;;;5066188;28;21240;-60
2022/03/23 08:25:33;;;;;;;5.53;3.93;;;10.90;99.90;;;;;;5063049;28;20488;-60
2022/03/23 08:28:07;;;;;;;4.87;4.37;;;10.90;99.90;;;;;;5061061;28;20444;-60
2022/03/23 08:30:40;;;;;;;4.67;4.30;;;10.90;99.90;;;;;;5066164;28;20461;-60
2022/03/23 08:33:11;;;;;;;5.47;4.57;;;11.00;99.90;;;;;;5059955;28;20451;-60
2022/03/23 08:35:42;;;;;;;5.07;4.70;;;10.90;99.90;;;;;;5064846;28;20466;-60
2022/03/23 08:38:13;;;;;;;7.70;5.17;;;10.80;99.90;;;;;;5072537;28;20474;-60
2022/03/23 08:40:45;;;;;;;4.60;4.20;;;10.80;99.90;;;;;;5062455;28;20452;-60
2022/03/23 08:43:15;;;;;;;5.00;4.43;;;10.70;99.90;;;;;;5075731;28;20466;-60
2022/03/23 08:45:48;;;;;;;6.00;4.33;;;10.70;99.90;;;;;;5062336;28;20553;-60
2022/03/23 08:48:20;;;;;;;5.27;4.77;;;10.70;99.90;;;;;;5062029;28;20463;-60
2022/03/23 08:50:52;;;;;;;5.87;5.00;;;10.60;99.90;;;;;;5063838;28;20462;-60
2022/03/23 08:53:25;;;;;;;5.07;4.47;;;10.60;99.90;;;;;;5064006;28;20971;-60
2022/03/23 08:55:57;;;;;;;5.23;4.73;;;10.50;99.90;;;;;;5062953;28;20467;-60
2022/03/23 08:58:28;;;;;;;5.10;4.70;;;10.50;99.90;;;;;;5063459;28;20445;-60
2022/03/23 09:01:01;;;;;;;7.10;4.57;;;10.60;99.90;;;;;;5074200;28;20515;-59
2022/03/23 09:03:32;;;;;;;4.83;4.43;;;10.50;99.90;;;;;;5061871;28;20457;-59
2022/03/23 09:06:03;;;;;;;8.83;5.20;;;10.50;99.90;;;;;;5062054;28;20487;-60
2022/03/23 09:08:39;;;;;;;5.93;4.63;;;10.50;99.90;;;;;;5069340;28;20448;-60
2022/03/23 09:11:10;;;;;;;4.80;4.30;;;10.50;99.90;;;;;;5061511;28;20489;-59
2022/03/23 09:13:42;;;;;;;5.57;4.00;;;10.40;99.90;;;;;;5064775;28;20922;-60
2022/03/23 09:16:15;;;;;;;5.63;5.13;;;10.40;99.90;;;;;;5062139;28;20994;-60
2022/03/23 09:18:46;;;;;;;5.30;4.80;;;10.40;99.90;;;;;;5063801;28;20523;-60
2022/03/23 09:21:17;;;;;;;5.83;5.23;;;10.40;99.90;;;;;;5061625;28;20467;-59
2022/03/23 09:23:48;;;;;;;8.00;5.23;;;10.30;99.90;;;;;;5061850;28;20475;-59
2022/03/23 09:26:19;;;;;;;5.13;4.63;;;10.40;99.90;;;;;;5062022;28;20490;-59
2022/03/23 09:28:51;;;;;;;7.30;4.70;;;10.30;99.90;;;;;;5060793;28;20532;-60
2022/03/23 09:31:23;;;;;;;6.93;5.37;;;10.30;99.90;;;;;;5062215;28;20452;-59
2022/03/23 09:33:54;;;;;;;4.67;4.27;;;10.20;99.90;;;;;;5061349;28;20453;-59
2022/03/23 09:39:09;;;;;;;5.50;5.00;;;10.20;99.90;;;;;;5065733;28;20460;-60
2022/03/23 09:41:41;;;;;;;6.30;5.70;;;10.10;99.90;;;;;;5074007;28;20459;-59
2022/03/23 09:44:12;;;;;;;6.40;5.80;;;10.20;99.90;;;;;;5060328;28;20924;-60
2022/03/23 09:46:44;;;;;;;6.53;5.83;;;10.20;99.90;;;;;;5061650;28;20476;-60
2022/03/23 09:49:15;;;;;;;5.90;5.20;;;10.20;99.90;;;;;;5060769;28;20449;-59
2022/03/23 09:51:51;;;;;;;5.80;5.20;;;10.30;99.90;;;;;;5062204;28;20451;-60
2022/03/23 09:54:23;;;;;;;6.07;5.47;;;10.30;99.90;;;;;;5071047;28;20451;-59
2022/03/23 09:56:53;;;;;;;6.03;5.47;;;10.20;99.90;;;;;;5062627;28;20460;-60
2022/03/23 09:59:24;;;;;;;5.70;5.20;;;10.20;99.90;;;;;;5069122;28;20438;-59
2022/03/23 10:02:27;;;;;;;5.60;5.07;;;10.20;99.90;;;;;;5070882;28;20528;-59
2022/03/23 10:05:34;;;;;;;6.10;4.87;;;10.20;99.90;;;;;;5061053;28;20503;-59
2022/03/23 10:08:45;;;;;;;5.97;5.30;;;10.20;99.90;;;;;;5050317;28;20944;-59
2022/03/23 10:12:00;;;;;;;5.27;4.77;;;10.30;99.90;;;;;;4979208;28;20454;-60
2022/03/23 10:15:15;;;;;;;7.80;5.20;;;10.40;99.90;;;;;;4989005;28;20578;-60
2022/03/23 10:18:11;;;;;;;4.63;4.23;;;10.40;99.90;;;;;;4994244;28;20506;-60
2022/03/23 10:20:42;;;;;;;5.90;5.30;;;10.40;99.90;;;;;;4971131;28;20481;-59
2022/03/23 10:23:13;;;;;;;5.30;4.80;;;10.40;99.90;;;;;;5002180;28;20909;-60
2022/03/23 10:25:44;;;;;;;11.77;5.87;;;10.30;99.90;;;;;;4992789;28;20486;-60
2022/03/23 10:28:16;;;;;;;6.30;5.03;;;10.20;99.90;;;;;;5001298;28;20446;-60
2022/03/23 10:30:48;;;;;;;5.53;4.70;;;10.10;99.90;;;;;;5002364;28;20685;-60
2022/03/23 10:33:22;;;;;;;5.30;4.90;;;10.20;99.90;;;;;;5001762;28;21078;-60
2022/03/23 10:35:55;;;;;;;5.70;5.07;;;10.20;99.90;;;;;;5002497;28;20454;-60
2022/03/23 10:38:26;;;;;;;5.80;5.17;;;10.20;99.90;;;;;;5003113;28;20457;-60
2022/03/23 10:40:57;;;;;;;5.50;5.00;;;10.10;99.90;;;;;;5002207;28;20455;-60
2022/03/23 10:43:39;;;;;;;5.33;4.83;;;10.20;99.90;;;;;;5000748;28;20447;-60
2022/03/23 10:46:10;;;;;;;8.90;5.40;;;10.10;99.90;;;;;;5001904;28;20477;-60
2022/03/23 10:48:58;;;;;;;4.97;4.47;;;10.10;99.90;;;;;;5054504;28;20452;-60
2022/03/23 10:51:31;;;;;;;5.30;4.80;;;10.10;99.90;;;;;;5064068;28;20555;-60
2022/03/23 10:54:14;;;;;;;5.60;4.60;;;10.00;99.90;;;;;;5081213;28;20448;-60
2022/03/23 10:56:45;;;;;;;5.20;4.70;;;10.00;99.90;;;;;;5073028;28;20467;-59
2022/03/23 10:59:23;;;;;;;5.47;4.97;;;9.90;99.90;;;;;;5064577;28;20517;-60
2022/03/23 11:02:04;;;;;;;6.33;5.70;;;9.90;99.90;;;;;;5074791;28;20829;-60
2022/03/23 11:04:53;;;;;;;7.00;4.97;;;9.90;99.90;;;;;;5069098;28;20463;-60
2022/03/23 11:07:26;;;;;;;6.57;5.20;;;9.90;99.90;;;;;;5064122;28;21001;-60
2022/03/23 11:15:49;;;;;;;6.87;6.17;;;10.10;99.90;;;;;;5062983;28;20556;-61
2022/03/23 11:18:21;;;;;;;8.10;6.10;;;10.20;99.90;;;;;;5063707;28;20483;-60
2022/03/23 11:20:54;;;;;;;6.37;5.60;;;10.30;99.90;;;;;;5070053;28;20462;-60
2022/03/23 11:23:26;;;;;;;8.17;6.00;;;10.30;99.90;;;;;;5062498;28;20440;-60
2022/03/23 11:25:59;;;;;;;8.63;5.90;;;10.40;99.90;;;;;;5063827;28;20510;-60
2022/03/23 11:28:33;;;;;;;6.57;5.90;;;10.50;99.90;;;;;;5070056;28;20459;-60
2022/03/23 11:31:06;;;;;;;7.93;6.67;;;10.60;99.90;;;;;;5066452;28;20452;-60
2022/03/23 11:33:38;;;;;;;7.70;6.10;;;10.60;99.90;;;;;;5065881;28;20591;-60
2022/03/23 11:36:12;;;;;;;9.40;6.80;;;10.50;99.90;;;;;;5065043;28;20447;-60
2022/03/23 11:38:43;;;;;;;7.80;6.30;;;10.60;99.90;;;;;;5062922;28;20477;-59
2022/03/23 11:41:15;;;;;;;10.90;7.37;;;10.60;99.90;;;;;;5063384;28;20452;-59
2022/03/23 11:43:46;;;;;;;10.67;8.43;;;10.60;99.90;;;;;;5063296;28;20943;-59
2022/03/23 11:46:23;;;;;;;11.73;8.10;;;10.70;99.90;;;;;;5061667;28;20484;-60
2022/03/23 11:49:06;;;;;;;10.50;7.87;;;10.80;99.90;;;;;;5064071;28;20438;-60
2022/03/23 11:52:02;;;;;;;9.10;7.60;;;10.80;99.90;;;;;;5074233;28;20590;-59
2022/03/23 11:58:04;;;;;;;17.73;9.30;;;11.10;99.90;;;;;;5066208;28;20461;-60
2022/03/23 12:00:43;;;;;;;18.67;10.00;;;11.10;99.90;;;;;;5066639;28;20456;-60
2022/03/23 12:03:16;;;;;;;17.73;10.00;;;11.10;99.90;;;;;;5071499;28;20940;-60
2022/03/23 12:05:53;;;;;;;13.60;9.47;;;11.10;99.90;;;;;;5062098;28;20452;-59
2022/03/23 12:08:51;;;;;;;30.60;10.67;;;11.20;99.90;;;;;;5062771;28;20483;-60
2022/03/23 12:11:42;;;;;;;25.50;11.13;;;11.30;99.90;;;;;;5063210;28;20531;-60
2022/03/23 12:14:22;;;;;;;27.97;11.67;;;11.30;99.90;;;;;;5061403;28;20936;-60
2022/03/23 12:17:10;;;;;;;22.00;10.53;;;11.30;99.90;;;;;;5062920;28;20463;-60
2022/03/23 12:20:07;;;;;;;27.90;11.37;;;11.30;99.90;;;;;;5064184;28;20484;-60
2022/03/23 12:23:05;;;;;;;61.53;13.83;;;11.30;99.90;;;;;;5061965;28;20820;-60
2022/03/23 12:25:55;;;;;;;23.17;11.50;;;11.40;99.90;;;;;;5063124;28;20478;-60
2022/03/23 12:28:49;;;;;;;35.27;11.37;;;11.40;99.90;;;;;;5065307;28;20449;-60
2022/03/23 12:31:20;;;;;;;35.33;12.83;;;11.40;99.90;;;;;;5063372;28;20908;-60
2022/03/23 12:34:20;;;;;;;64.33;16.20;;;11.50;99.90;;;;;;5062243;28;20792;-60
2022/03/23 12:36:59;;;;;;;35.50;13.27;;;11.50;99.90;;;;;;5064063;28;20464;-60
2022/03/23 12:39:32;;;;;;;17.07;10.10;;;11.50;99.90;;;;;;5062684;28;20456;-60
2022/03/23 12:42:19;;;;;;;32.63;13.40;;;11.50;99.90;;;;;;5060455;28;20784;-60
2022/03/23 12:44:51;;;;;;;26.57;12.70;;;11.50;99.90;;;;;;5062288;28;20452;-60
2022/03/23 12:47:27;;;;;;;16.93;11.43;;;11.50;99.90;;;;;;5062211;28;20480;-60
2022/03/23 12:58:44;;;;;;;16.17;12.80;;;11.70;99.90;;;;;;5061712;28;20436;-60
2022/03/23 13:01:16;;;;;;;17.50;12.77;;;11.70;99.90;;;;;;5062510;28;20904;-60
2022/03/23 13:03:56;;;;;;;16.77;12.60;;;11.70;99.90;;;;;;5061639;28;20451;-60
2022/03/23 13:06:40;;;;;;;15.70;12.40;;;11.70;99.90;;;;;;5069635;28;20490;-60
2022/03/23 13:09:13;;;;;;;15.03;11.50;;;11.70;99.90;;;;;;5065153;28;20452;-60
2022/03/23 13:11:57;;;;;;;19.93;13.23;;;11.70;99.90;;;;;;5061396;28;20951;-60
2022/03/23 13:14:30;;;;;;;16.73;12.60;;;11.60;99.90;;;;;;5061671;28;20555;-60
2022/03/23 13:17:02;;;;;;;15.20;12.20;;;11.70;99.90;;;;;;5062198;28;20446;-60
2022/03/23 13:19:33;;;;;;;16.37;10.30;;;11.70;99.90;;;;;;5061868;28;20902;-60
2022/03/23 13:22:07;;;;;;;13.03;11.43;;;11.80;99.90;;;;;;5062309;28;20503;-59
2022/03/23 13:24:38;;;;;;;17.30;11.73;;;11.80;99.90;;;;;;5062297;28;20474;-60
2022/03/23 13:27:14;;;;;;;14.40;11.67;;;11.90;99.90;;;;;;5067458;28;20494;-60
2022/03/23 13:29:47;;;;;;;16.23;11.33;;;12.00;99.90;;;;;;5061333;28;20459;-59
2022/03/23 13:32:18;;;;;;;12.37;10.40;;;11.90;99.90;;;;;;5070733;28;20539;-60
2022/03/23 13:34:55;;;;;;;12.23;10.63;;;11.90;99.90;;;;;;5074123;28;20449;-60
2022/03/23 13:37:58;;;;;;;16.77;13.60;;;11.80;99.90;;;;;;5071934;28;20576;-60
2022/03/23 13:43:19;;;;;;;13.70;11.50;;;12.00;99.90;;;;;;5060860;28;20468;-59
2022/03/23 13:43:23;;;;;;;15.50;11.80;;;11.90;99.90;;;;;;5058920;28;20496;-60
2022/03/23 13:45:57;;;;;;;15.63;11.90;;;11.90;99.90;;;;;;5068521;28;20482;-61
2022/03/23 13:48:31;;;;;;;12.87;10.10;;;11.80;99.90;;;;;;5060697;28;20567;-61
2022/03/23 13:51:03;;;;;;;13.60;10.83;;;11.90;99.90;;;;;;5061384;28;20448;-60
2022/03/23 13:53:33;;;;;;;12.30;10.33;;;11.90;99.90;;;;;;5061090;28;20463;-60